Accueil
METAR-TAF:

METAR-TAF

Aéroports :

Aéroport international d'Ivato

Tananarive, Madagascar

latitude: 18-48S, longitude: 047-29E, altitude: 1279 m

Observation

Le bulletin a été fait il y a 17 minutes, à 22:30 UTC
Vent 4 kt de sud-est, variant entre est/sud-est et sud
Température 14°C
Humidité 94%
Pression 1025 hPa
Visibilité 10 km ou plus
Quelques nuages à une hauteur de 1700 ft
Nuages fragmentés à une hauteur de 2000 ft

METAR: FMMI 202230Z 14004KT 110V170 9999 FEW017 BKN020 14/13 Q1025 NOSIG

Heure: 01:47 (22:47 UTC)

Prévision

Le bulletin a été fait il y a 5 heures et 47 minutes, à 17:00 UTC
Prévision valable du 20 à 18 UTC au 21 à 24 UTC
Vent 3 kt de direction variable
Visibilité 10 km ou plus
Quelques nuages à une hauteur de 1700 ft
Probabilité 30%
du 21 à 02 UTC au 21 à 06 UTC
Visibilité: 4000 m
brume

TAF: FMMI 201700Z 2018/2124 VRB03KT 9999 FEW017 PROB30 2102/2106 4000 BR

Observations et prévisions météorologiques de plus de 4000 aéroports (messages METAR et TAF).

Les stations disponibles sont représentées par des disques jaunes et rouges sur la carte.

Passer la souris dessus pour voir le nom de la station.

Cliquer dessus pour voir les observations et prévisions météorologiques.

Pour changer de carte: cliquez sur les boutons verts avec une croix noire pour zoomer, sur le bouton vert avec un tiret pour effectuer un zoom arrière, ou sur les flèches vertes pour les cartes adjacentes.


METAR-TAF: